Time;durP1;ratioP1;P1;durP2;ratioP2;P2;SDS_P1;SDS_P2;PMS_P1;PMS_P2;Temp;Humidity;BMP_temperature;BMP_pressure;BME280_temperature;BME280_humidity;BME280_pressure;Samples;Min_cycle;Max_cycle;Signal;HPM_P1;HPM_P2
2021/03/27 00:01:56;;;;;;;9.13;5.53;;;;;;;11.28;57.19;98801.75;4853053;29;20041;-71
2021/03/27 00:04:46;;;;;;;7.18;5.00;;;;;;;11.55;56.27;98785.59;4853802;29;20053;-71
2021/03/27 00:07:29;;;;;;;7.18;4.85;;;;;;;11.62;57.09;98756.94;4853822;29;20518;-70
2021/03/27 00:10:17;;;;;;;13.50;5.30;;;;;;;12.05;55.55;98778.44;4854172;29;20025;-70
2021/03/27 00:12:48;;;;;;;9.13;4.80;;;;;;;12.18;55.82;98793.72;4854404;29;20080;-70
2021/03/27 00:15:20;;;;;;;10.07;4.80;;;;;;;12.38;55.25;98807.09;4854152;29;20029;-70
2021/03/27 00:17:57;;;;;;;10.43;4.43;;;;;;;12.35;54.95;98799.38;4854468;29;20399;-70
2021/03/27 00:20:29;;;;;;;7.20;4.57;;;;;;;12.29;55.76;98804.72;4856798;29;20399;-70
2021/03/27 00:23:00;;;;;;;12.23;4.60;;;;;;;12.20;56.73;98812.72;4861074;29;20026;-70
2021/03/27 00:25:31;;;;;;;10.18;4.85;;;;;;;12.12;57.38;98814.66;4856105;29;20492;-71
2021/03/27 00:28:02;;;;;;;7.63;4.38;;;;;;;12.08;57.98;98809.50;4852083;29;20544;-71
2021/03/27 00:30:52;;;;;;;4.13;3.65;;;;;;;12.09;57.20;98806.06;4850774;29;20037;-70
2021/03/27 00:33:21;;;;;;;7.38;3.80;;;;;;;12.13;57.01;98800.78;4850999;29;20029;-70
2021/03/27 00:36:02;;;;;;;8.00;3.80;;;;;;;12.09;57.36;98795.66;4851485;29;20624;-70
2021/03/27 00:38:50;;;;;;;13.95;4.18;;;;;;;12.05;57.79;98811.34;4850567;29;20120;-70
2021/03/27 00:41:27;;;;;;;5.30;4.07;;;;;;;12.00;58.41;98806.25;4850783;29;20021;-71
2021/03/27 00:43:58;;;;;;;5.72;3.92;;;;;;;11.91;59.08;98788.31;4852511;29;20596;-70
2021/03/27 00:46:24;;;;;;;3.50;3.17;;;;;;;11.89;59.16;98764.09;4851626;29;20048;-70
2021/03/27 00:49:00;;;;;;;7.38;3.47;;;;;;;11.77;60.99;98773.00;4852028;29;20030;-71
2021/03/27 00:51:35;;;;;;;7.38;3.53;;;;;;;11.61;62.37;98776.00;4851680;29;20056;-71
2021/03/27 00:54:21;;;;;;;5.75;3.90;;;;;;;11.53;63.23;98789.13;4854313;29;20029;-71
2021/03/27 00:57:10;;;;;;;5.28;3.60;;;;;;;11.46;63.58;98795.31;4858705;29;20029;-71
2021/03/27 00:59:55;;;;;;;4.70;4.20;;;;;;;11.28;64.33;98773.22;4860691;29;20025;-70
2021/03/27 08:01:30;;;;;;;2.20;1.00;;;;;;;10.40;46.88;99514.88;5513563;23;20052;-68
2021/03/27 08:04:06;;;;;;;1.67;0.88;;;;;;;10.61;47.44;99510.44;4897833;29;20050;-68
2021/03/27 08:06:49;;;;;;;6.38;1.23;;;;;;;10.57;47.54;99519.09;4897756;29;20038;-68
2021/03/27 08:09:37;;;;;;;1.50;0.68;;;;;;;9.69;45.36;99521.16;4899022;29;20554;-68
2021/03/27 08:12:27;;;;;;;1.02;0.80;;;;;;;10.21;46.03;99515.81;4898674;29;20036;-68
2021/03/27 08:15:17;;;;;;;1.38;0.90;;;;;;;10.54;45.92;99515.66;4901684;29;20084;-72
2021/03/27 08:17:52;;;;;;;2.00;0.77;;;;;;;11.20;44.77;99520.34;4909716;29;20039;-72
2021/03/27 08:20:24;;;;;;;4.18;0.70;;;;;;;12.45;42.55;99515.53;4917346;29;20043;-72
2021/03/27 08:22:59;;;;;;;1.65;0.80;;;;;;;13.28;41.27;99503.88;4917579;29;20032;-72
2021/03/27 08:26:02;;;;;;;4.60;0.63;;;;;;;13.26;40.47;99513.47;4917461;29;20020;-72
2021/03/27 08:28:50;;;;;;;1.85;0.80;;;;;;;13.16;38.85;99524.91;4932111;29;20036;-73
2021/03/27 08:31:32;;;;;;;2.80;1.00;;;;;;;13.70;38.12;99507.47;4916538;29;20051;-72
2021/03/27 08:34:23;;;;;;;1.58;0.68;;;;;;;12.41;41.00;99529.44;4917379;29;20442;-72
2021/03/27 08:37:04;;;;;;;0.98;0.63;;;;;;;13.45;39.23;99522.69;4917200;29;20031;-72
2021/03/27 08:39:32;;;;;;;1.00;0.75;;;;;;;15.31;35.99;99516.97;4917300;29;20028;-72
2021/03/27 08:42:13;;;;;;;1.63;0.85;;;;;;;15.99;35.25;99511.69;4916934;29;20024;-72
2021/03/27 08:44:57;;;;;;;4.22;1.30;;;;;;;15.68;35.02;99528.22;4909876;29;20052;-72
2021/03/27 08:47:48;;;;;;;3.40;1.38;;;;;;;15.12;35.59;99537.44;4872562;28;20040;-72
2021/03/27 08:50:52;;;;;;;2.75;0.90;;;;;;;14.34;37.47;99547.88;4924653;29;20055;-72
2021/03/27 08:53:35;;;;;;;2.72;0.95;;;;;;;15.91;33.68;99529.38;4916067;29;20060;-72
2021/03/27 08:56:15;;;;;;;2.60;1.00;;;;;;;13.66;35.48;99542.25;4916910;29;20024;-72
2021/03/27 08:59:08;;;;;;;3.25;1.27;;;;;;;14.12;35.25;99542.25;4917034;29;20066;-72
2021/03/27 09:01:58;;;;;;;0.60;0.60;;;;;;;14.36;35.10;99550.47;4916546;29;20032;-72
2021/03/27 09:04:45;;;;;;;2.67;0.70;;;;;;;15.31;31.95;99537.88;4916772;29;20067;-72
2021/03/27 09:07:25;;;;;;;1.23;0.65;;;;;;;15.13;31.34;99534.81;4916747;29;20032;-72
2021/03/27 09:10:19;;;;;;;1.15;0.50;;;;;;;15.94;30.45;99539.72;4916861;29;20111;-71
2021/03/27 09:13:13;;;;;;;0.68;0.57;;;;;;;16.65;31.03;99533.31;4931135;29;20039;-72
2021/03/27 09:15:55;;;;;;;3.45;2.35;;;;;;;18.03;28.27;99526.97;4908691;29;20119;-70
2021/03/27 09:18:44;;;;;;;0.63;0.60;;;;;;;17.09;29.61;99541.56;4910333;29;20032;-72
2021/03/27 09:21:39;;;;;;;1.35;0.75;;;;;;;16.51;29.50;99540.72;4916151;29;20036;-76
2021/03/27 09:24:23;;;;;;;0.88;0.60;;;;;;;16.63;29.23;99532.47;4916552;29;20036;-71
2021/03/27 09:27:01;;;;;;;2.55;1.00;;;;;;;15.23;30.33;99538.06;4916383;29;20032;-71
2021/03/27 09:29:48;;;;;;;2.15;0.70;;;;;;;15.58;30.80;99552.84;4916423;29;20115;-71
2021/03/27 09:32:54;;;;;;;4.38;0.60;;;;;;;16.51;29.18;99557.25;4930627;29;20028;-71
2021/03/27 09:35:20;;;;;;;1.17;0.80;;;;;;;15.71;30.21;99555.16;4915551;29;20493;-71
2021/03/27 09:38:10;;;;;;;0.50;0.50;;;;;;;16.15;28.44;99565.28;4916230;29;20046;-71
2021/03/27 09:40:44;;;;;;;2.78;1.30;;;;;;;16.39;29.23;99563.72;4916043;29;20500;-71
2021/03/27 09:43:43;;;;;;;1.73;0.70;;;;;;;16.14;29.04;99563.53;4916007;29;20036;-71
2021/03/27 09:46:35;;;;;;;0.88;0.57;;;;;;;17.28;27.86;99560.16;4898417;29;20021;-72
2021/03/27 09:49:18;;;;;;;2.00;0.90;;;;;;;15.74;28.37;99583.81;4916170;29;20040;-72
2021/03/27 09:52:12;;;;;;;1.67;0.50;;;;;;;16.70;29.16;99570.66;4915779;29;20083;-71
2021/03/27 09:54:41;;;;;;;1.20;0.40;;;;;;;16.04;28.31;99583.00;4915967;29;20397;-71
2021/03/27 09:57:27;;;;;;;1.17;0.50;;;;;;;15.73;28.45;99574.28;4915964;29;20031;-71
2021/03/27 10:00:19;;;;;;;2.45;0.85;;;;;;;16.33;28.01;99589.19;4930584;29;20122;-71
2021/03/27 10:02:57;;;;;;;0.50;0.50;;;;;;;17.00;26.52;99591.59;4915493;29;20039;-71
2021/03/27 10:05:37;;;;;;;0.52;0.50;;;;;;;15.91;28.31;99598.19;4930552;29;20056;-71
2021/03/27 10:08:14;;;;;;;3.10;0.80;;;;;;;15.68;29.05;99606.59;4930376;29;20032;-71
2021/03/27 10:10:43;;;;;;;2.35;0.70;;;;;;;16.18;28.37;99600.94;4916145;29;20035;-71
2021/03/27 10:13:27;;;;;;;4.53;0.57;;;;;;;16.68;26.94;99609.06;4915709;29;20227;-71
2021/03/27 10:15:55;;;;;;;2.85;0.90;;;;;;;16.14;28.70;99602.75;4920414;29;20028;-71
2021/03/27 10:18:35;;;;;;;1.60;0.75;;;;;;;15.95;26.98;99583.25;4910597;29;20076;-72
2021/03/27 10:21:26;;;;;;;0.75;0.60;;;;;;;16.14;27.90;99600.16;4930189;29;20401;-71
2021/03/27 10:24:10;;;;;;;2.30;0.73;;;;;;;16.62;27.38;99612.75;4915875;29;20079;-71
2021/03/27 10:26:56;;;;;;;0.98;0.82;;;;;;;17.07;26.68;99598.38;4915524;29;20084;-71
2021/03/27 10:29:41;;;;;;;0.95;0.60;;;;;;;17.40;26.61;99612.13;4915618;29;20060;-71
2021/03/27 10:32:31;;;;;;;2.08;0.60;;;;;;;16.87;27.53;99598.94;4915400;29;20516;-71
2021/03/27 10:35:26;;;;;;;0.73;0.55;;;;;;;16.31;26.41;99606.69;4915519;29;20509;-71
2021/03/27 10:38:11;;;;;;;1.30;0.60;;;;;;;17.16;26.52;99604.16;4915468;29;20032;-71
2021/03/27 10:40:45;;;;;;;1.90;0.98;;;;;;;16.93;26.45;99612.72;4915506;29;20046;-72
2021/03/27 10:43:24;;;;;;;2.50;1.30;;;;;;;16.50;27.49;99623.56;4915445;29;20099;-72
2021/03/27 10:46:19;;;;;;;1.48;0.70;;;;;;;17.11;26.62;99619.13;4905954;29;20062;-72
2021/03/27 10:49:04;;;;;;;0.80;0.70;;;;;;;18.42;26.04;99629.63;4913647;29;20039;-72
2021/03/27 10:52:07;;;;;;;4.63;0.68;;;;;;;18.22;24.92;99625.06;4915313;29;20032;-72
2021/03/27 10:55:13;;;;;;;1.27;0.80;;;;;;;19.13;25.02;99630.47;4915297;29;20389;-72
2021/03/27 10:57:57;;;;;;;5.00;1.13;;;;;;;17.53;26.61;99634.41;4913134;29;20028;-72
2021/03/27 11:00:34;;;;;;;3.00;0.95;;;;;;;13.47;30.17;99656.28;4902136;29;20115;-72
2021/03/27 11:03:11;;;;;;;2.72;0.80;;;;;;;15.71;27.51;99646.59;4903712;29;20032;-71
2021/03/27 11:05:49;;;;;;;3.78;1.00;;;;;;;13.61;30.43;99654.31;4904395;29;20381;-71
2021/03/27 11:08:45;;;;;;;2.03;1.08;;;;;;;16.08;27.64;99636.91;4902420;29;20367;-71
2021/03/27 11:11:27;;;;;;;1.75;0.75;;;;;;;16.40;25.60;99641.28;4910340;29;20447;-71
2021/03/27 11:13:58;;;;;;;3.78;1.88;;;;;;;16.62;26.09;99638.91;4904425;29;20028;-71
2021/03/27 11:16:32;;;;;;;3.40;1.13;;;;;;;14.60;28.80;99656.91;4907513;29;20052;-71
2021/03/27 11:19:28;;;;;;;2.50;1.00;;;;;;;14.67;29.50;99648.94;4899913;29;20027;-71
2021/03/27 11:22:17;;;;;;;2.17;0.98;;;;;;;14.53;29.60;99649.22;4907778;29;20051;-71
2021/03/27 11:24:52;;;;;;;1.85;0.82;;;;;;;14.44;28.74;99646.75;4900165;29;20036;-71
2021/03/27 11:27:26;;;;;;;9.20;4.40;;;;;;;15.34;28.39;99642.25;4913091;29;20063;-71
2021/03/27 11:30:13;;;;;;;1.88;1.08;;;;;;;16.63;26.57;99640.66;4909063;29;20096;-71
2021/03/27 11:33:02;;;;;;;2.72;0.90;;;;;;;16.27;27.11;99649.50;4902655;29;20029;-71
2021/03/27 11:35:36;;;;;;;3.15;1.20;;;;;;;17.36;25.21;99641.97;4911707;29;20029;-71
2021/03/27 11:38:31;;;;;;;1.00;0.52;;;;;;;16.79;25.89;99650.69;4910597;29;20024;-71
2021/03/27 11:41:35;;;;;;;5.35;1.17;;;;;;;16.97;26.38;99652.78;4884549;29;20482;-72
2021/03/27 11:44:19;;;;;;;6.28;1.02;;;;;;;18.94;24.81;99645.22;4907152;29;20043;-71
2021/03/27 11:46:52;;;;;;;4.72;1.38;;;;;;;19.15;24.73;99641.78;4907102;29;20051;-71
2021/03/27 11:49:58;;;;;;;3.15;1.00;;;;;;;17.06;25.60;99647.22;4904579;29;20020;-71
2021/03/27 11:52:57;;;;;;;1.58;0.73;;;;;;;17.13;24.77;99661.03;4903932;29;20171;-71
2021/03/27 11:55:48;;;;;;;1.15;0.55;;;;;;;17.89;25.06;99655.09;4911597;29;20035;-71
2021/03/27 11:59:41;;;;;;;7.60;1.08;;;;;;;16.71;26.13;99658.72;4900732;29;20163;-71
2021/03/27 12:01:31;;;;;;;2.92;0.65;;;;;;;14.84;28.51;99673.81;4907697;29;20040;-71
2021/03/27 12:04:16;;;;;;;4.18;1.10;;;;;;;16.67;26.69;99663.19;4909832;29;20032;-70
2021/03/27 12:07:08;;;;;;;2.95;1.55;;;;;;;15.49;28.36;99667.16;4902074;29;20030;-70
2021/03/27 12:09:46;;;;;;;2.67;0.90;;;;;;;16.92;26.35;99657.25;4910000;29;20084;-70
2021/03/27 12:12:32;;;;;;;3.38;1.00;;;;;;;17.58;25.94;99644.75;4910949;29;20083;-71
2021/03/27 12:15:14;;;;;;;4.78;0.75;;;;;;;14.71;28.38;99680.16;4899498;29;20407;-71
2021/03/27 12:17:57;;;;;;;3.78;0.80;;;;;;;13.82;30.35;99673.06;4899596;29;20044;-71
2021/03/27 12:20:32;;;;;;;3.17;1.08;;;;;;;12.60;31.13;99673.91;4905372;29;20060;-71
2021/03/27 12:23:06;;;;;;;1.75;0.73;;;;;;;12.72;31.91;99687.66;4909143;29;20020;-71
2021/03/27 12:25:34;;;;;;;3.28;1.02;;;;;;;12.20;32.58;99686.50;4913631;29;20024;-70
2021/03/27 12:28:12;;;;;;;5.35;1.48;;;;;;;12.01;33.40;99685.81;4899723;29;20039;-70
2021/03/27 12:31:12;;;;;;;1.92;1.20;;;;;;;11.86;33.04;99688.53;4901452;29;20024;-70
2021/03/27 12:33:43;;;;;;;1.33;0.90;;;;;;;11.58;34.52;99690.44;4908097;29;20040;-70
2021/03/27 12:36:34;;;;;;;22.45;8.93;;;;;;;12.12;33.77;99682.22;4910489;29;20028;-70
2021/03/27 12:38:59;;;;;;;1.98;1.08;;;;;;;12.53;32.99;99685.28;4887779;29;20104;-71
2021/03/27 12:41:34;;;;;;;1.85;1.02;;;;;;;12.98;32.04;99684.72;4910462;29;20043;-71
2021/03/27 12:44:03;;;;;;;3.03;1.05;;;;;;;13.26;31.84;99674.84;4906152;29;20037;-70
2021/03/27 12:47:01;;;;;;;3.23;1.13;;;;;;;13.65;32.06;99664.69;4905363;29;20091;-71
2021/03/27 12:49:50;;;;;;;3.10;1.70;;;;;;;13.57;31.09;99663.06;4905972;29;20096;-71
2021/03/27 12:52:34;;;;;;;5.22;1.60;;;;;;;12.38;33.68;99680.25;4904803;29;20127;-71
2021/03/27 12:55:18;;;;;;;6.85;1.15;;;;;;;11.87;33.67;99674.66;4898078;29;20506;-71
2021/03/27 12:57:58;;;;;;;1.48;0.90;;;;;;;12.89;32.66;99688.31;4906883;29;20036;-71
2021/03/27 13:00:35;;;;;;;3.92;1.77;;;;;;;13.41;33.44;99673.75;4902448;29;20025;-71
2021/03/27 13:03:07;;;;;;;2.25;1.10;;;;;;;13.44;32.64;99671.97;4913244;29;20543;-71
2021/03/27 13:05:46;;;;;;;3.85;1.20;;;;;;;13.45;32.21;99658.06;4905016;29;20029;-71
2021/03/27 13:08:32;;;;;;;5.63;1.42;;;;;;;12.48;33.02;99674.06;4904172;29;20028;-70
2021/03/27 13:11:18;;;;;;;3.60;1.02;;;;;;;12.13;33.85;99683.94;4913086;29;20044;-70
2021/03/27 13:14:15;;;;;;;1.60;1.00;;;;;;;11.58;33.91;99680.94;4905631;29;20087;-70
2021/03/27 13:16:47;;;;;;;7.95;1.15;;;;;;;11.79;34.10;99676.44;4895161;29;20136;-71
2021/03/27 13:19:35;;;;;;;2.33;0.95;;;;;;;11.90;33.61;99674.66;4911765;29;20028;-70
2021/03/27 13:22:10;;;;;;;4.20;1.27;;;;;;;11.59;34.12;99677.44;4906997;29;20059;-73
2021/03/27 13:24:35;;;;;;;5.25;1.25;;;;;;;11.88;33.14;99679.00;4900883;29;20032;-73
2021/03/27 13:27:15;;;;;;;2.20;0.82;;;;;;;12.13;33.05;99673.56;4927526;29;20028;-69
2021/03/27 13:29:46;;;;;;;2.83;1.08;;;;;;;12.69;33.18;99674.69;4916748;29;20028;-69
2021/03/27 13:32:17;;;;;;;4.18;1.20;;;;;;;12.04;32.88;99675.41;4897115;29;20035;-69
2021/03/27 13:35:01;;;;;;;3.63;0.90;;;;;;;12.65;32.94;99667.81;4912921;29;20035;-69
2021/03/27 13:37:35;;;;;;;3.60;1.05;;;;;;;12.36;32.33;99681.97;4903476;29;20154;-70
2021/03/27 13:40:05;;;;;;;0.60;0.60;;;;;;;12.28;31.88;99683.78;4904739;29;20032;-69
2021/03/27 13:43:16;;;;;;;2.35;1.02;;;;;;;11.97;32.50;99672.84;4911795;29;20545;-69
2021/03/27 13:45:55;;;;;;;1.77;1.00;;;;;;;11.71;32.73;99668.72;4895015;29;20422;-69
2021/03/27 13:48:30;;;;;;;4.03;1.00;;;;;;;11.85;33.25;99671.25;4915708;29;20154;-69
2021/03/27 13:51:34;;;;;;;14.35;7.97;;;;;;;11.84;33.47;99672.09;4900059;29;20029;-69
2021/03/27 13:54:18;;;;;;;3.95;0.90;;;;;;;11.45;34.04;99674.09;4904023;29;20044;-69
2021/03/27 13:56:51;;;;;;;3.83;1.02;;;;;;;11.54;33.81;99674.03;4910050;29;20021;-69
2021/03/27 13:59:38;;;;;;;2.38;0.88;;;;;;;11.48;34.09;99681.88;4910527;29;20024;-69
2021/03/27 14:02:06;;;;;;;4.05;1.00;;;;;;;11.64;33.58;99680.00;4907819;29;20111;-69
2021/03/27 14:04:38;;;;;;;2.30;1.13;;;;;;;11.63;34.39;99683.50;4900561;29;20048;-69
2021/03/27 14:07:31;;;;;;;3.53;1.17;;;;;;;11.80;34.02;99681.63;4885425;29;20080;-69
2021/03/27 14:10:05;;;;;;;6.53;1.33;;;;;;;11.92;33.25;99691.06;4905100;29;20040;-69
2021/03/27 14:12:46;;;;;;;4.88;1.58;;;;;;;11.68;33.08;99699.03;4911452;29;20034;-69
2021/03/27 14:15:27;;;;;;;2.55;0.93;;;;;;;11.39;33.68;99700.09;4890657;29;20016;-69
2021/03/27 14:18:28;;;;;;;5.07;1.98;;;;;;;11.06;34.04;99695.97;4914471;29;20028;-69
2021/03/27 14:21:22;;;;;;;4.15;1.63;;;;;;;10.91;34.49;99698.63;4899511;29;20048;-69
2021/03/27 14:24:17;;;;;;;3.00;1.38;;;;;;;11.22;35.08;99713.19;4906486;29;20394;-69
2021/03/27 14:27:24;;;;;;;3.63;1.98;;;;;;;11.27;34.25;99710.56;4912182;29;20025;-69
2021/03/27 14:30:06;;;;;;;8.50;2.60;;;;;;;11.39;34.44;99710.47;4906157;29;20032;-68
2021/03/27 14:33:06;;;;;;;6.97;2.90;;;;;;;11.16;34.51;99708.00;4900260;29;20107;-68
2021/03/27 14:35:50;;;;;;;3.22;1.27;;;;;;;11.45;33.96;99705.22;4892237;29;20035;-68
2021/03/27 14:38:53;;;;;;;2.50;0.88;;;;;;;11.23;34.51;99714.03;4902420;29;20117;-69
2021/03/27 14:41:44;;;;;;;2.83;1.30;;;;;;;11.20;34.57;99708.84;4909628;29;20099;-69
2021/03/27 14:44:24;;;;;;;4.25;0.98;;;;;;;11.33;34.69;99711.38;4900594;29;20044;-69
2021/03/27 14:47:01;;;;;;;5.95;1.15;;;;;;;11.36;34.87;99710.47;4905934;29;20141;-68
2021/03/27 14:49:49;;;;;;;8.70;1.67;;;;;;;11.33;35.26;99715.72;4909557;29;20039;-68
2021/03/27 14:52:45;;;;;;;4.72;1.15;;;;;;;11.39;34.57;99699.25;4910080;29;20040;-75
2021/03/27 14:55:16;;;;;;;2.65;1.10;;;;;;;11.58;34.41;99712.06;4904572;29;20116;-72
2021/03/27 14:58:01;;;;;;;10.30;3.28;;;;;;;11.77;34.64;99707.59;4915268;29;20063;-71
2021/03/27 15:00:49;;;;;;;3.83;1.10;;;;;;;11.87;34.69;99716.22;4913844;29;20020;-71
2021/03/27 15:03:23;;;;;;;4.78;1.60;;;;;;;11.50;34.90;99724.22;4886654;29;20478;-71
2021/03/27 15:05:51;;;;;;;3.13;1.20;;;;;;;11.89;35.00;99711.00;4901384;29;20039;-72
2021/03/27 15:08:52;;;;;;;4.50;1.48;;;;;;;11.27;35.92;99720.94;4918543;29;20509;-70
2021/03/27 15:11:25;;;;;;;4.85;1.27;;;;;;;11.10;36.22;99733.13;4904489;29;20040;-71
2021/03/27 15:14:02;;;;;;;2.92;1.40;;;;;;;10.68;37.17;99730.69;4908904;29;20028;-72
2021/03/27 15:16:40;;;;;;;3.25;1.38;;;;;;;10.67;36.70;99722.91;4906316;29;20494;-72
2021/03/27 15:19:12;;;;;;;5.78;1.80;;;;;;;10.98;36.47;99731.47;4914515;29;20103;-71
2021/03/27 15:21:46;;;;;;;4.20;1.20;;;;;;;11.07;36.97;99734.88;4906935;29;20040;-70
2021/03/27 15:24:29;;;;;;;5.00;1.40;;;;;;;11.26;36.56;99733.03;4905979;29;20052;-72
2021/03/27 15:27:17;;;;;;;4.82;1.20;;;;;;;11.01;36.84;99732.28;4897889;29;20021;-72
2021/03/27 15:29:58;;;;;;;1.35;1.13;;;;;;;10.92;37.44;99729.72;4914430;29;20039;-72
2021/03/27 15:32:41;;;;;;;2.15;1.23;;;;;;;11.02;37.07;99744.41;4913324;29;20028;-71
2021/03/27 15:35:27;;;;;;;13.68;3.50;;;;;;;10.87;37.47;99747.03;4890069;29;20017;-71
2021/03/27 15:37:55;;;;;;;4.30;1.30;;;;;;;10.68;37.99;99735.00;4916908;29;20024;-74
2021/03/27 15:40:54;;;;;;;3.72;1.20;;;;;;;10.73;37.97;99739.34;4904584;29;20047;-71
2021/03/27 15:43:41;;;;;;;2.35;1.23;;;;;;;10.95;37.73;99749.63;4898690;29;20040;-71
2021/03/27 15:46:29;;;;;;;3.60;1.40;;;;;;;10.74;37.61;99746.22;4906849;29;20024;-71
2021/03/27 15:49:07;;;;;;;2.38;1.30;;;;;;;10.73;38.41;99754.88;4885434;29;20049;-71
2021/03/27 15:51:40;;;;;;;5.70;1.65;;;;;;;10.62;38.65;99753.16;4900024;29;20394;-71
2021/03/27 15:54:14;;;;;;;5.68;1.48;;;;;;;10.65;38.03;99755.78;4892562;29;20108;-71
2021/03/27 15:57:07;;;;;;;4.72;1.40;;;;;;;10.71;38.35;99755.75;4888048;29;20040;-70
2021/03/27 15:59:48;;;;;;;3.65;1.20;;;;;;;10.75;38.12;99767.84;4888621;29;20538;-71
2021/03/27 16:02:32;;;;;;;7.45;1.70;;;;;;;10.80;37.94;99766.09;4885162;29;20072;-71
2021/03/27 16:05:18;;;;;;;4.20;1.48;;;;;;;10.88;38.03;99763.44;4887471;29;20067;-71
2021/03/27 16:07:50;;;;;;;2.83;1.17;;;;;;;10.84;37.48;99766.94;4889490;29;20044;-70
2021/03/27 16:10:28;;;;;;;3.30;1.52;;;;;;;10.81;37.13;99767.81;4887253;29;20719;-69
2021/03/27 16:12:59;;;;;;;4.88;1.02;;;;;;;10.57;37.46;99786.00;4888409;29;20040;-70
2021/03/27 16:15:46;;;;;;;6.50;1.40;;;;;;;10.57;37.44;99778.22;4888583;29;20059;-69
2021/03/27 16:18:31;;;;;;;2.33;0.93;;;;;;;10.60;37.46;99783.44;4887919;29;20036;-70
2021/03/27 16:21:15;;;;;;;4.22;1.40;;;;;;;10.53;37.68;99786.00;4888871;29;20036;-70
2021/03/27 16:23:50;;;;;;;3.83;1.40;;;;;;;10.68;37.23;99773.88;4889564;29;20178;-69
2021/03/27 16:26:34;;;;;;;4.90;1.45;;;;;;;10.82;37.15;99785.06;4889739;29;20029;-70
2021/03/27 16:29:17;;;;;;;3.60;1.20;;;;;;;10.43;37.46;99789.47;4887302;29;20040;-69
2021/03/27 16:32:01;;;;;;;2.53;1.40;;;;;;;10.44;37.47;99793.81;4883345;29;20402;-70
2021/03/27 16:34:50;;;;;;;5.82;1.70;;;;;;;10.33;37.95;99794.66;4881316;29;20059;-70
2021/03/27 16:37:36;;;;;;;6.22;1.50;;;;;;;10.26;38.56;99788.66;4900679;29;20048;-70
2021/03/27 16:40:13;;;;;;;14.38;5.13;;;;;;;10.22;38.71;99792.06;4901974;29;20517;-70
2021/03/27 16:42:57;;;;;;;6.60;1.38;;;;;;;10.18;38.51;99795.50;4901140;29;20075;-70
2021/03/27 16:45:52;;;;;;;4.65;1.27;;;;;;;10.19;38.28;99799.81;4901942;29;20213;-70
2021/03/27 16:48:49;;;;;;;7.55;1.75;;;;;;;10.29;38.09;99799.84;4886625;29;20066;-70
2021/03/27 16:51:41;;;;;;;7.55;2.40;;;;;;;10.14;38.95;99804.13;4902251;29;20505;-70
2021/03/27 16:54:20;;;;;;;6.05;1.98;;;;;;;10.18;38.67;99816.22;4900770;29;20063;-69
2021/03/27 16:56:51;;;;;;;6.72;2.85;;;;;;;10.12;38.48;99811.06;4902147;29;20516;-69
2021/03/27 16:59:35;;;;;;;2.17;1.70;;;;;;;10.16;39.55;99817.97;4904323;29;20135;-69
2021/03/27 17:02:03;;;;;;;5.28;1.52;;;;;;;10.16;39.38;99823.16;4907422;29;20072;-69
2021/03/27 17:04:49;;;;;;;3.72;1.30;;;;;;;10.16;39.26;99821.41;4907775;29;20043;-69
2021/03/27 17:07:21;;;;;;;5.28;1.73;;;;;;;10.12;39.53;99829.19;4907361;29;20094;-69
2021/03/27 17:10:18;;;;;;;11.48;3.95;;;;;;;10.02;39.44;99831.75;4907946;29;20028;-70
2021/03/27 17:13:02;;;;;;;5.75;1.63;;;;;;;10.03;39.88;99832.63;4906774;29;20071;-73
2021/03/27 17:15:50;;;;;;;5.68;2.05;;;;;;;10.08;39.45;99830.91;4908699;29;20038;-73
2021/03/27 17:18:44;;;;;;;6.18;1.70;;;;;;;9.99;39.84;99831.75;4901375;29;20102;-73
2021/03/27 17:21:27;;;;;;;4.95;1.90;;;;;;;9.94;39.52;99842.97;4907927;29;20083;-73
2021/03/27 17:24:14;;;;;;;3.83;1.45;;;;;;;10.09;39.59;99837.78;4908211;29;20028;-73
2021/03/27 17:26:58;;;;;;;4.78;1.50;;;;;;;10.16;40.45;99838.69;4908273;29;20028;-73
2021/03/27 17:29:34;;;;;;;2.58;1.48;;;;;;;10.10;39.76;99843.84;4908444;29;20039;-73
2021/03/27 17:31:59;;;;;;;10.63;1.75;;;;;;;9.95;39.80;99842.94;4908013;29;20039;-73
2021/03/27 17:34:35;;;;;;;2.80;1.48;;;;;;;10.01;39.14;99845.56;4908355;29;20035;-73
2021/03/27 17:37:30;;;;;;;7.40;1.60;;;;;;;9.98;39.83;99850.72;4908323;29;20789;-73
2021/03/27 17:40:20;;;;;;;7.68;1.90;;;;;;;9.89;39.14;99850.72;4908416;29;20040;-73
2021/03/27 17:42:50;;;;;;;;;;;;;;;9.82;39.09;99859.34;4907745;29;20505;-73
2021/03/27 17:45:18;;;;;;;5.40;2.10;;;;;;;9.77;39.67;99866.22;4908087;29;19926;-73
2021/03/27 17:48:09;;;;;;;4.55;2.00;;;;;;;9.68;39.72;99861.03;4908179;29;20068;-73
2021/03/27 17:50:44;;;;;;;7.85;3.33;;;;;;;9.57;39.58;99867.88;4907858;29;20405;-73
2021/03/27 17:53:21;;;;;;;7.43;1.80;;;;;;;9.57;39.65;99883.38;4907747;29;20102;-73
2021/03/27 17:55:55;;;;;;;4.80;2.30;;;;;;;9.48;39.42;99868.72;4907141;29;20035;-73
2021/03/27 17:58:26;;;;;;;9.27;3.42;;;;;;;9.44;39.75;99878.19;4908088;29;20536;-76
2021/03/27 18:00:59;;;;;;;7.95;2.25;;;;;;;9.51;40.19;99876.47;4908835;29;20401;-74
2021/03/27 18:03:35;;;;;;;13.18;5.63;;;;;;;9.51;40.35;99885.09;4909712;29;20047;-74
2021/03/27 18:06:08;;;;;;;9.43;5.30;;;;;;;9.45;40.56;99895.44;4908971;29;20020;-74
2021/03/27 18:09:06;;;;;;;5.60;2.40;;;;;;;9.46;40.68;99894.56;4908788;29;20036;-74
2021/03/27 18:11:37;;;;;;;5.43;1.85;;;;;;;9.43;41.64;99897.16;4908072;29;20118;-74
2021/03/27 18:14:13;;;;;;;7.05;1.88;;;;;;;9.36;40.53;99897.97;4908759;29;20489;-74
2021/03/27 18:16:55;;;;;;;15.15;7.72;;;;;;;9.43;41.20;99912.69;4923795;29;20414;-74
2021/03/27 18:19:37;;;;;;;7.95;3.20;;;;;;;9.42;41.75;99923.84;4921667;29;20027;-74
2021/03/27 18:22:24;;;;;;;11.15;6.10;;;;;;;9.35;41.51;99913.50;4906249;29;20036;-74
2021/03/27 18:25:15;;;;;;;14.82;5.80;;;;;;;9.01;42.29;99914.16;4908356;29;20084;-74
2021/03/27 18:27:53;;;;;;;18.65;8.00;;;;;;;8.89;42.92;99919.22;4911374;29;20046;-74
2021/03/27 18:30:24;;;;;;;10.48;3.42;;;;;;;8.90;42.25;99925.28;4911464;29;21455;-74
2021/03/27 18:32:55;;;;;;;9.05;3.40;;;;;;;8.85;43.03;99934.69;4909917;29;20032;-74
2021/03/27 18:35:29;;;;;;;11.82;5.38;;;;;;;8.80;42.62;99921.75;4911282;29;20039;-74
2021/03/27 18:37:54;;;;;;;5.22;2.10;;;;;;;8.64;43.12;99938.84;4910828;29;20490;-75
2021/03/27 18:40:20;;;;;;;14.88;6.45;;;;;;;8.68;43.00;99934.56;4910506;29;20051;-75
2021/03/27 18:42:48;;;;;;;13.50;6.82;;;;;;;8.72;43.25;99942.34;4910796;29;21572;-75
2021/03/27 18:45:41;;;;;;;21.83;9.73;;;;;;;8.64;43.59;99943.13;4910689;29;20102;-74
2021/03/27 18:48:26;;;;;;;16.73;7.55;;;;;;;8.72;43.82;99949.25;4910075;29;20036;-74
2021/03/27 18:51:09;;;;;;;14.65;6.43;;;;;;;8.65;43.66;99956.06;4910830;29;20044;-74
2021/03/27 18:53:41;;;;;;;19.98;7.28;;;;;;;8.74;43.54;99958.72;4910684;29;21374;-75
2021/03/27 18:56:09;;;;;;;17.45;7.72;;;;;;;8.64;44.05;99958.66;4910601;29;20028;-75
2021/03/27 18:58:51;;;;;;;12.77;4.28;;;;;;;8.66;44.99;99962.13;4911107;29;20079;-75
2021/03/27 19:01:37;;;;;;;19.15;7.55;;;;;;;8.75;44.53;99959.59;4910573;29;20028;-75
2021/03/27 19:04:25;;;;;;;12.15;6.50;;;;;;;8.80;44.34;99969.97;4911540;29;20470;-75
2021/03/27 19:07:03;;;;;;;11.60;4.82;;;;;;;8.92;44.38;99970.94;4896565;29;20449;-75
2021/03/27 19:09:31;;;;;;;11.82;3.83;;;;;;;8.92;44.14;99970.94;4891862;29;20059;-75
2021/03/27 19:12:32;;;;;;;15.55;6.53;;;;;;;8.97;43.76;99971.84;4896149;29;20036;-75
2021/03/27 19:15:13;;;;;;;12.45;4.68;;;;;;;8.98;43.97;99960.66;4868956;29;20044;-75
2021/03/27 19:17:52;;;;;;;7.30;2.95;;;;;;;8.84;43.57;99967.41;4869392;29;20569;-75
2021/03/27 19:20:25;;;;;;;13.82;4.70;;;;;;;8.82;44.42;99969.13;4856719;29;20036;-72
2021/03/27 19:23:01;;;;;;;7.55;3.33;;;;;;;8.86;44.45;99977.78;4837189;29;20028;-72
2021/03/27 19:25:35;;;;;;;20.75;8.32;;;;;;;8.94;44.44;99984.72;4827143;29;20035;-69
2021/03/27 19:28:03;;;;;;;16.77;7.72;;;;;;;8.84;44.76;99985.50;4821401;29;20036;-75
2021/03/27 19:30:59;;;;;;;21.88;8.50;;;;;;;8.94;44.80;99984.72;4820072;29;20073;-73
2021/03/27 19:33:33;;;;;;;13.98;5.10;;;;;;;8.88;44.71;99989.00;4813231;29;20181;-71
2021/03/27 19:36:02;;;;;;;12.95;6.18;;;;;;;8.95;45.37;99991.66;4824224;29;20473;-73
2021/03/27 19:38:31;;;;;;;7.82;3.30;;;;;;;8.90;44.70;99995.94;4830138;29;20032;-67
2021/03/27 19:41:04;;;;;;;16.65;6.35;;;;;;;8.94;44.78;100000.25;4843864;29;20522;-73
2021/03/27 19:43:38;;;;;;;9.57;2.90;;;;;;;8.91;44.73;100009.72;4820489;29;20040;-67